Saint Francis River (Missouri), Saco (07036100)

StateMissouriLatestLow (353 cfs)
RiverSaint Francis RiverRatingObservedEstimated
Updated2020-08-11 18:30 (49 minutes ago)Flood - The river is flooding. Obstacles can be treacherous or deadly. The river should be avoided at this stage for casual trips and definitely for the inexperienced. Trips should be attempted only with protective gear and equipment.Flood(none)4443
Discharge353 cfs (median: 53 cfs)High - The river is high and potentially dangerous, especially for the young and / or inexperienced. Normal stream obstacles are sometimes difficult to navigate. Extended distances can be attempted, but canoe travel may not be advisable.High(none)1847
Height3.13 feetGood - Conditions are ideal for a canoe or kayak. Boats typically will drag on fewer than one-quarter of riffles, if at all, and portages are unnecessary or rare. Normal float lengths can be attempted without a problem.Good(none)670
TrendRising (falling over 24 hours)Low - River is low but can still be floated. Some riffles are okay but most come with significant dragging and might need a portage. Float lengths should be reduced to accommodate low flow, dragging, and portages.Low(none)183
USGSExternal icon USGS Site (External icon Google Maps)Poor - River is too low to float comfortably. Most or all riffles will drag or must be portaged and some obstacles (such as slick shelf rock) cause undue problems. Avoid the river at this stage for casual paddling trips.Poor(none)45

Trending Data

Plot Image

Trips for Saint Francis River (Missouri), Saco (07036100)

DateStartEndDistanceConditionDischargeHeightFishingDetails

A total of 0 rows are displayed.

Condition Descriptions

Fishing Conditions

Fish Species

Notes

Classic Trip List

The classic River Trips application is still available for use. It is updated with the new system using a data retrofit. It is no longer maintained. The original River Trips application is no longer updated (as of 1 Dec 2016) but can be checked for errors or for the condition of the data before it was converted to the new system.

Gauge Data Table

ObservationHeightDischargeMaximum
Discharge
Minimum
Discharge
Mean
Discharge
P05P10P20P25P50
(Median)
P75P80P90P95
2020-08-11 18:30 3.13 353 1930 (2013) 5 (2012) 193 7 11 14 32 53 132 173 291 1780
2020-08-11 18:00 3.11 346 1930 (2013) 5 (2012) 193 7 11 14 32 53 132 173 291 1780
2020-08-11 17:30 3.09 340 1930 (2013) 5 (2012) 193 7 11 14 32 53 132 173 291 1780
2020-08-11 17:00 3.09 340 1930 (2013) 5 (2012) 193 7 11 14 32 53 132 173 291 1780
2020-08-11 16:30 3.07 333 1930 (2013) 5 (2012) 193 7 11 14 32 53 132 173 291 1780
2020-08-11 16:00 3.06 330 1930 (2013) 5 (2012) 193 7 11 14 32 53 132 173 291 1780
2020-08-11 15:30 3.06 330 1930 (2013) 5 (2012) 193 7 11 14 32 53 132 173 291 1780
2020-08-11 15:00 3.06 330 1930 (2013) 5 (2012) 193 7 11 14 32 53 132 173 291 1780
2020-08-11 14:30 3.06 330 1930 (2013) 5 (2012) 193 7 11 14 32 53 132 173 291 1780
2020-08-11 14:00 3.04 324 1930 (2013) 5 (2012) 193 7 11 14 32 53 132 173 291 1780
2020-08-11 13:30 3.02 318 1930 (2013) 5 (2012) 193 7 11 14 32 53 132 173 291 1780
2020-08-11 13:00 3.03 321 1930 (2013) 5 (2012) 193 7 11 14 32 53 132 173 291 1780
2020-08-11 12:30 3.03 321 1930 (2013) 5 (2012) 193 7 11 14 32 53 132 173 291 1780
2020-08-11 12:00 3.04 324 1930 (2013) 5 (2012) 193 7 11 14 32 53 132 173 291 1780
2020-08-11 11:30 3.03 321 1930 (2013) 5 (2012) 193 7 11 14 32 53 132 173 291 1780
2020-08-11 11:00 3.04 324 1930 (2013) 5 (2012) 193 7 11 14 32 53 132 173 291 1780
2020-08-11 10:30 3.04 324 1930 (2013) 5 (2012) 193 7 11 14 32 53 132 173 291 1780
2020-08-11 10:00 3.04 324 1930 (2013) 5 (2012) 193 7 11 14 32 53 132 173 291 1780
2020-08-11 09:30 3.05 327 1930 (2013) 5 (2012) 193 7 11 14 32 53 132 173 291 1780
2020-08-11 09:00 3.05 327 1930 (2013) 5 (2012) 193 7 11 14 32 53 132 173 291 1780
2020-08-11 08:30 3.05 327 1930 (2013) 5 (2012) 193 7 11 14 32 53 132 173 291 1780
2020-08-11 08:00 3.06 330 1930 (2013) 5 (2012) 193 7 11 14 32 53 132 173 291 1780
2020-08-11 07:30 3.06 330 1930 (2013) 5 (2012) 193 7 11 14 32 53 132 173 291 1780
2020-08-11 07:00 3.07 333 1930 (2013) 5 (2012) 193 7 11 14 32 53 132 173 291 1780
2020-08-11 06:30 3.07 333 1930 (2013) 5 (2012) 193 7 11 14 32 53 132 173 291 1780
2020-08-11 06:00 3.08 337 1930 (2013) 5 (2012) 193 7 11 14 32 53 132 173 291 1780
2020-08-11 05:30 3.08 337 1930 (2013) 5 (2012) 193 7 11 14 32 53 132 173 291 1780
2020-08-11 05:00 3.09 340 1930 (2013) 5 (2012) 193 7 11 14 32 53 132 173 291 1780
2020-08-11 04:30 3.09 340 1930 (2013) 5 (2012) 193 7 11 14 32 53 132 173 291 1780
2020-08-11 04:00 3.10 343 1930 (2013) 5 (2012) 193 7 11 14 32 53 132 173 291 1780
2020-08-11 03:30 3.10 343 1930 (2013) 5 (2012) 193 7 11 14 32 53 132 173 291 1780
2020-08-11 03:00 3.11 346 1930 (2013) 5 (2012) 193 7 11 14 32 53 132 173 291 1780
2020-08-11 02:30 3.12 350 1930 (2013) 5 (2012) 193 7 11 14 32 53 132 173 291 1780
2020-08-11 02:00 3.12 350 1930 (2013) 5 (2012) 193 7 11 14 32 53 132 173 291 1780
2020-08-11 01:30 3.13 353 1930 (2013) 5 (2012) 193 7 11 14 32 53 132 173 291 1780
2020-08-11 01:00 3.14 356 1930 (2013) 5 (2012) 193 7 11 14 32 53 132 173 291 1780
2020-08-11 00:30 3.15 360 1930 (2013) 5 (2012) 193 7 11 14 32 53 132 173 291 1780
2020-08-11 00:00 3.15 360 1930 (2013) 5 (2012) 193 7 11 14 32 53 132 173 291 1780
2020-08-10 23:30 3.16 363 6970 (2013) 5 (2012) 390 7 11 15 32 60 176 259 322 4480
2020-08-10 23:00 3.17 366 6970 (2013) 5 (2012) 390 7 11 15 32 60 176 259 322 4480
2020-08-10 22:30 3.18 370 6970 (2013) 5 (2012) 390 7 11 15 32 60 176 259 322 4480
2020-08-10 22:00 3.19 373 6970 (2013) 5 (2012) 390 7 11 15 32 60 176 259 322 4480
2020-08-10 21:30 3.20 377 6970 (2013) 5 (2012) 390 7 11 15 32 60 176 259 322 4480
2020-08-10 21:00 3.21 380 6970 (2013) 5 (2012) 390 7 11 15 32 60 176 259 322 4480
2020-08-10 20:30 3.18 370 6970 (2013) 5 (2012) 390 7 11 15 32 60 176 259 322 4480
2020-08-10 20:00 3.21 380 6970 (2013) 5 (2012) 390 7 11 15 32 60 176 259 322 4480
2020-08-10 19:30 3.22 383 6970 (2013) 5 (2012) 390 7 11 15 32 60 176 259 322 4480
2020-08-10 19:00 3.24 390 6970 (2013) 5 (2012) 390 7 11 15 32 60 176 259 322 4480
2020-08-10 18:30 3.25 394 6970 (2013) 5 (2012) 390 7 11 15 32 60 176 259 322 4480
2020-08-10 18:00 3.26 397 6970 (2013) 5 (2012) 390 7 11 15 32 60 176 259 322 4480
2020-08-10 17:30 3.27 401 6970 (2013) 5 (2012) 390 7 11 15 32 60 176 259 322 4480
2020-08-10 17:00 3.29 408 6970 (2013) 5 (2012) 390 7 11 15 32 60 176 259 322 4480
2020-08-10 16:30 3.30 412 6970 (2013) 5 (2012) 390 7 11 15 32 60 176 259 322 4480
2020-08-10 16:00 3.31 415 6970 (2013) 5 (2012) 390 7 11 15 32 60 176 259 322 4480
2020-08-10 15:30 3.32 419 6970 (2013) 5 (2012) 390 7 11 15 32 60 176 259 322 4480
2020-08-10 15:00 3.32 419 6970 (2013) 5 (2012) 390 7 11 15 32 60 176 259 322 4480
2020-08-10 14:30 3.33 422 6970 (2013) 5 (2012) 390 7 11 15 32 60 176 259 322 4480
2020-08-10 14:00 3.34 426 6970 (2013) 5 (2012) 390 7 11 15 32 60 176 259 322 4480
2020-08-10 13:30 3.36 433 6970 (2013) 5 (2012) 390 7 11 15 32 60 176 259 322 4480
2020-08-10 13:00 3.36 433 6970 (2013) 5 (2012) 390 7 11 15 32 60 176 259 322 4480
2020-08-10 12:30 3.37 437 6970 (2013) 5 (2012) 390 7 11 15 32 60 176 259 322 4480
2020-08-10 12:00 3.39 445 6970 (2013) 5 (2012) 390 7 11 15 32 60 176 259 322 4480
2020-08-10 11:30 3.40 448 6970 (2013) 5 (2012) 390 7 11 15 32 60 176 259 322 4480
2020-08-10 11:00 3.41 452 6970 (2013) 5 (2012) 390 7 11 15 32 60 176 259 322 4480
2020-08-10 10:30 3.42 456 6970 (2013) 5 (2012) 390 7 11 15 32 60 176 259 322 4480
2020-08-10 10:00 3.43 460 6970 (2013) 5 (2012) 390 7 11 15 32 60 176 259 322 4480
2020-08-10 09:30 3.44 463 6970 (2013) 5 (2012) 390 7 11 15 32 60 176 259 322 4480
2020-08-10 09:00 3.45 467 6970 (2013) 5 (2012) 390 7 11 15 32 60 176 259 322 4480
2020-08-10 08:30 3.45 467 6970 (2013) 5 (2012) 390 7 11 15 32 60 176 259 322 4480
2020-08-10 08:00 3.46 471 6970 (2013) 5 (2012) 390 7 11 15 32 60 176 259 322 4480
2020-08-10 07:30 3.46 471 6970 (2013) 5 (2012) 390 7 11 15 32 60 176 259 322 4480
2020-08-10 07:00 3.47 475 6970 (2013) 5 (2012) 390 7 11 15 32 60 176 259 322 4480
2020-08-10 06:30 3.47 475 6970 (2013) 5 (2012) 390 7 11 15 32 60 176 259 322 4480
2020-08-10 06:00 3.46 471 6970 (2013) 5 (2012) 390 7 11 15 32 60 176 259 322 4480
2020-08-10 05:30 3.46 471 6970 (2013) 5 (2012) 390 7 11 15 32 60 176 259 322 4480
2020-08-10 05:00 3.44 463 6970 (2013) 5 (2012) 390 7 11 15 32 60 176 259 322 4480
2020-08-10 04:30 3.43 460 6970 (2013) 5 (2012) 390 7 11 15 32 60 176 259 322 4480
2020-08-10 04:00 3.41 452 6970 (2013) 5 (2012) 390 7 11 15 32 60 176 259 322 4480
2020-08-10 03:30 3.38 441 6970 (2013) 5 (2012) 390 7 11 15 32 60 176 259 322 4480
2020-08-10 03:00 3.35 430 6970 (2013) 5 (2012) 390 7 11 15 32 60 176 259 322 4480
2020-08-10 02:30 3.32 419 6970 (2013) 5 (2012) 390 7 11 15 32 60 176 259 322 4480
2020-08-10 02:00 3.29 408 6970 (2013) 5 (2012) 390 7 11 15 32 60 176 259 322 4480
2020-08-10 01:30 3.24 390 6970 (2013) 5 (2012) 390 7 11 15 32 60 176 259 322 4480
2020-08-10 01:00 3.18 370 6970 (2013) 5 (2012) 390 7 11 15 32 60 176 259 322 4480
2020-08-10 00:30 3.12 350 6970 (2013) 5 (2012) 390 7 11 15 32 60 176 259 322 4480
2020-08-10 00:00 3.06 330 6970 (2013) 5 (2012) 390 7 11 15 32 60 176 259 322 4480
2020-08-09 23:30 2.99 308 3390 (2013) 5 (2012) 198 8 12 17 30 58 130 155 232 1900
2020-08-09 23:00 2.91 284 3390 (2013) 5 (2012) 198 8 12 17 30 58 130 155 232 1900
2020-08-09 22:30 2.84 264 3390 (2013) 5 (2012) 198 8 12 17 30 58 130 155 232 1900
2020-08-09 22:00 2.76 242 3390 (2013) 5 (2012) 198 8 12 17 30 58 130 155 232 1900
2020-08-09 21:30 2.72 231 3390 (2013) 5 (2012) 198 8 12 17 30 58 130 155 232 1900
2020-08-09 21:00 2.69 224 3390 (2013) 5 (2012) 198 8 12 17 30 58 130 155 232 1900
2020-08-09 20:30 2.68 221 3390 (2013) 5 (2012) 198 8 12 17 30 58 130 155 232 1900
2020-08-09 20:00 2.67 218 3390 (2013) 5 (2012) 198 8 12 17 30 58 130 155 232 1900
2020-08-09 19:30 2.68 221 3390 (2013) 5 (2012) 198 8 12 17 30 58 130 155 232 1900
2020-08-09 19:00 2.68 221 3390 (2013) 5 (2012) 198 8 12 17 30 58 130 155 232 1900
2020-08-09 18:30 2.67 218 3390 (2013) 5 (2012) 198 8 12 17 30 58 130 155 232 1900
2020-08-09 18:00 2.68 221 3390 (2013) 5 (2012) 198 8 12 17 30 58 130 155 232 1900
2020-08-09 17:30 2.68 221 3390 (2013) 5 (2012) 198 8 12 17 30 58 130 155 232 1900
2020-08-09 17:00 2.68 221 3390 (2013) 5 (2012) 198 8 12 17 30 58 130 155 232 1900
2020-08-09 16:30 2.69 224 3390 (2013) 5 (2012) 198 8 12 17 30 58 130 155 232 1900
2020-08-09 16:00 2.69 224 3390 (2013) 5 (2012) 198 8 12 17 30 58 130 155 232 1900
2020-08-09 15:30 2.69 224 3390 (2013) 5 (2012) 198 8 12 17 30 58 130 155 232 1900
2020-08-09 15:00 2.69 224 3390 (2013) 5 (2012) 198 8 12 17 30 58 130 155 232 1900
2020-08-09 14:30 2.69 224 3390 (2013) 5 (2012) 198 8 12 17 30 58 130 155 232 1900
2020-08-09 14:00 2.69 224 3390 (2013) 5 (2012) 198 8 12 17 30 58 130 155 232 1900
2020-08-09 13:30 2.69 224 3390 (2013) 5 (2012) 198 8 12 17 30 58 130 155 232 1900
2020-08-09 13:00 2.69 224 3390 (2013) 5 (2012) 198 8 12 17 30 58 130 155 232 1900
2020-08-09 12:30 2.69 224 3390 (2013) 5 (2012) 198 8 12 17 30 58 130 155 232 1900
2020-08-09 12:00 2.69 224 3390 (2013) 5 (2012) 198 8 12 17 30 58 130 155 232 1900
2020-08-09 11:30 2.69 224 3390 (2013) 5 (2012) 198 8 12 17 30 58 130 155 232 1900
2020-08-09 11:00 2.69 224 3390 (2013) 5 (2012) 198 8 12 17 30 58 130 155 232 1900
2020-08-09 10:30 2.68 221 3390 (2013) 5 (2012) 198 8 12 17 30 58 130 155 232 1900
2020-08-09 10:00 2.68 221 3390 (2013) 5 (2012) 198 8 12 17 30 58 130 155 232 1900
2020-08-09 09:30 2.68 221 3390 (2013) 5 (2012) 198 8 12 17 30 58 130 155 232 1900
2020-08-09 09:00 2.68 221 3390 (2013) 5 (2012) 198 8 12 17 30 58 130 155 232 1900
2020-08-09 08:30 2.68 221 3390 (2013) 5 (2012) 198 8 12 17 30 58 130 155 232 1900
2020-08-09 08:00 2.68 221 3390 (2013) 5 (2012) 198 8 12 17 30 58 130 155 232 1900
2020-08-09 07:30 2.67 218 3390 (2013) 5 (2012) 198 8 12 17 30 58 130 155 232 1900
2020-08-09 07:00 2.67 218 3390 (2013) 5 (2012) 198 8 12 17 30 58 130 155 232 1900
2020-08-09 06:30 2.66 216 3390 (2013) 5 (2012) 198 8 12 17 30 58 130 155 232 1900
2020-08-09 06:00 2.66 216 3390 (2013) 5 (2012) 198 8 12 17 30 58 130 155 232 1900
2020-08-09 05:30 2.66 216 3390 (2013) 5 (2012) 198 8 12 17 30 58 130 155 232 1900
2020-08-09 05:00 2.65 213 3390 (2013) 5 (2012) 198 8 12 17 30 58 130 155 232 1900
2020-08-09 04:30 2.65 213 3390 (2013) 5 (2012) 198 8 12 17 30 58 130 155 232 1900
2020-08-09 04:00 2.65 213 3390 (2013) 5 (2012) 198 8 12 17 30 58 130 155 232 1900
2020-08-09 03:30 2.66 216 3390 (2013) 5 (2012) 198 8 12 17 30 58 130 155 232 1900
2020-08-09 03:00 2.66 216 3390 (2013) 5 (2012) 198 8 12 17 30 58 130 155 232 1900
2020-08-09 02:30 2.56 191 3390 (2013) 5 (2012) 198 8 12 17 30 58 130 155 232 1900
2020-08-09 02:00 2.66 216 3390 (2013) 5 (2012) 198 8 12 17 30 58 130 155 232 1900
2020-08-09 01:30 2.66 216 3390 (2013) 5 (2012) 198 8 12 17 30 58 130 155 232 1900
2020-08-09 01:00 2.66 216 3390 (2013) 5 (2012) 198 8 12 17 30 58 130 155 232 1900
2020-08-09 00:30 2.66 216 3390 (2013) 5 (2012) 198 8 12 17 30 58 130 155 232 1900
2020-08-09 00:00 2.66 216 3390 (2013) 5 (2012) 198 8 12 17 30 58 130 155 232 1900
2020-08-08 23:30 2.66 216 1030 (2013) 6 (2012) 115 9 13 20 26 52 104 119 193 781
2020-08-08 23:00 2.66 216 1030 (2013) 6 (2012) 115 9 13 20 26 52 104 119 193 781
2020-08-08 22:30 2.66 216 1030 (2013) 6 (2012) 115 9 13 20 26 52 104 119 193 781
2020-08-08 22:00 2.67 218 1030 (2013) 6 (2012) 115 9 13 20 26 52 104 119 193 781
2020-08-08 21:30 2.67 218 1030 (2013) 6 (2012) 115 9 13 20 26 52 104 119 193 781
2020-08-08 21:00 2.67 218 1030 (2013) 6 (2012) 115 9 13 20 26 52 104 119 193 781
2020-08-08 20:30 2.68 221 1030 (2013) 6 (2012) 115 9 13 20 26 52 104 119 193 781
2020-08-08 20:00 2.67 218 1030 (2013) 6 (2012) 115 9 13 20 26 52 104 119 193 781
2020-08-08 19:30 2.68 221 1030 (2013) 6 (2012) 115 9 13 20 26 52 104 119 193 781
2020-08-08 19:00 2.68 221 1030 (2013) 6 (2012) 115 9 13 20 26 52 104 119 193 781
2020-08-08 18:30 2.68 221 1030 (2013) 6 (2012) 115 9 13 20 26 52 104 119 193 781
2020-08-08 18:00 2.68 221 1030 (2013) 6 (2012) 115 9 13 20 26 52 104 119 193 781
2020-08-08 17:30 2.68 221 1030 (2013) 6 (2012) 115 9 13 20 26 52 104 119 193 781
2020-08-08 17:00 2.69 224 1030 (2013) 6 (2012) 115 9 13 20 26 52 104 119 193 781
2020-08-08 16:30 2.69 224 1030 (2013) 6 (2012) 115 9 13 20 26 52 104 119 193 781
2020-08-08 16:00 2.68 221 1030 (2013) 6 (2012) 115 9 13 20 26 52 104 119 193 781
2020-08-08 15:30 2.68 221 1030 (2013) 6 (2012) 115 9 13 20 26 52 104 119 193 781
2020-08-08 15:00 2.69 224 1030 (2013) 6 (2012) 115 9 13 20 26 52 104 119 193 781
2020-08-08 14:30 2.69 224 1030 (2013) 6 (2012) 115 9 13 20 26 52 104 119 193 781
2020-08-08 14:00 2.69 224 1030 (2013) 6 (2012) 115 9 13 20 26 52 104 119 193 781
2020-08-08 13:30 2.69 224 1030 (2013) 6 (2012) 115 9 13 20 26 52 104 119 193 781
2020-08-08 13:00 2.70 226 1030 (2013) 6 (2012) 115 9 13 20 26 52 104 119 193 781
2020-08-08 12:30 2.70 226 1030 (2013) 6 (2012) 115 9 13 20 26 52 104 119 193 781
2020-08-08 12:00 2.70 226 1030 (2013) 6 (2012) 115 9 13 20 26 52 104 119 193 781
2020-08-08 11:30 2.71 229 1030 (2013) 6 (2012) 115 9 13 20 26 52 104 119 193 781
2020-08-08 11:00 2.70 226 1030 (2013) 6 (2012) 115 9 13 20 26 52 104 119 193 781
2020-08-08 10:30 2.70 226 1030 (2013) 6 (2012) 115 9 13 20 26 52 104 119 193 781
2020-08-08 10:00 2.70 226 1030 (2013) 6 (2012) 115 9 13 20 26 52 104 119 193 781
2020-08-08 09:30 2.70 226 1030 (2013) 6 (2012) 115 9 13 20 26 52 104 119 193 781
2020-08-08 09:00 2.70 226 1030 (2013) 6 (2012) 115 9 13 20 26 52 104 119 193 781
2020-08-08 08:30 2.70 226 1030 (2013) 6 (2012) 115 9 13 20 26 52 104 119 193 781
2020-08-08 08:00 2.70 226 1030 (2013) 6 (2012) 115 9 13 20 26 52 104 119 193 781
2020-08-08 07:30 2.70 226 1030 (2013) 6 (2012) 115 9 13 20 26 52 104 119 193 781
2020-08-08 07:00 2.70 226 1030 (2013) 6 (2012) 115 9 13 20 26 52 104 119 193 781
2020-08-08 06:30 2.71 229 1030 (2013) 6 (2012) 115 9 13 20 26 52 104 119 193 781
2020-08-08 06:00 2.71 229 1030 (2013) 6 (2012) 115 9 13 20 26 52 104 119 193 781
2020-08-08 05:30 2.70 226 1030 (2013) 6 (2012) 115 9 13 20 26 52 104 119 193 781
2020-08-08 05:00 2.71 229 1030 (2013) 6 (2012) 115 9 13 20 26 52 104 119 193 781
2020-08-08 04:30 2.70 226 1030 (2013) 6 (2012) 115 9 13 20 26 52 104 119 193 781
2020-08-08 04:00 2.71 229 1030 (2013) 6 (2012) 115 9 13 20 26 52 104 119 193 781
2020-08-08 03:30 2.71 229 1030 (2013) 6 (2012) 115 9 13 20 26 52 104 119 193 781
2020-08-08 03:00 2.71 229 1030 (2013) 6 (2012) 115 9 13 20 26 52 104 119 193 781
2020-08-08 02:30 2.72 231 1030 (2013) 6 (2012) 115 9 13 20 26 52 104 119 193 781
2020-08-08 02:00 2.72 231 1030 (2013) 6 (2012) 115 9 13 20 26 52 104 119 193 781
2020-08-08 01:30 2.72 231 1030 (2013) 6 (2012) 115 9 13 20 26 52 104 119 193 781
2020-08-08 01:00 2.72 231 1030 (2013) 6 (2012) 115 9 13 20 26 52 104 119 193 781
2020-08-08 00:30 2.73 234 1030 (2013) 6 (2012) 115 9 13 20 26 52 104 119 193 781
2020-08-08 00:00 2.72 231 1030 (2013) 6 (2012) 115 9 13 20 26 52 104 119 193 781

A total of 182 rows are displayed for years 1983 through 2019.